aviador You're here:

KJNX Decoded Metar

SMITHFIELD JOHNS in NC, USA
Report Time2017-12-11 09:15:00
UTC Time2017-12-11 09:18:43
Flight Rules vfr VFR
WindCalm
Visibility9999 m
Phenomena:N/A
Clouds:N/A
CeilingNone
Temp-3°C (ISA -18)
Dew Point-3°C (100% RH)
AAT-5.4°C
QNH1020 hPa
Density Alt-2,182 ft
Elevation164 ft
Report Wrong Elevation
Raw Report
KJNX 110915Z AUTO 00000KT 10SM CLR M03/M03 A3013 RMK AO2=

Extra information for KJNX:More info

Metar Taf Metar & Taf Last 4 Metars F.Rules Stats Wind Profile Meteogram Temp Stats Airport Information Weather charts Add Link Nearby VenuesMetar ALERT Operation Metar Decoded Social comments

AIRNAV info for KJNX